sensor_id;sensor_type;location;lat;lon;timestamp;temperature;humidity
69031;DHT22;56083;48.774;8.942;2023-05-10T00:01:07;12.60;99.90
69031;DHT22;56083;48.774;8.942;2023-05-10T00:03:33;12.60;99.90
69031;DHT22;56083;48.774;8.942;2023-05-10T00:05:58;12.50;99.90
69031;DHT22;56083;48.774;8.942;2023-05-10T00:08:24;12.40;99.90
69031;DHT22;56083;48.774;8.942;2023-05-10T00:10:50;12.40;99.90
69031;DHT22;56083;48.774;8.942;2023-05-10T00:13:15;12.30;99.90
69031;DHT22;56083;48.774;8.942;2023-05-10T00:15:41;12.30;99.90
69031;DHT22;56083;48.774;8.942;2023-05-10T00:18:06;12.20;99.90
69031;DHT22;56083;48.774;8.942;2023-05-10T00:20:32;12.10;99.90
69031;DHT22;56083;48.774;8.942;2023-05-10T00:22:58;12.00;99.90
69031;DHT22;56083;48.774;8.942;2023-05-10T00:25:23;12.00;99.90
69031;DHT22;56083;48.774;8.942;2023-05-10T00:27:49;12.00;99.90
69031;DHT22;56083;48.774;8.942;2023-05-10T00:30:15;12.00;99.90
69031;DHT22;56083;48.774;8.942;2023-05-10T00:32:40;11.90;99.90
69031;DHT22;56083;48.774;8.942;2023-05-10T00:35:06;11.90;99.90
69031;DHT22;56083;48.774;8.942;2023-05-10T00:37:32;11.90;99.90
69031;DHT22;56083;48.774;8.942;2023-05-10T00:39:58;11.90;99.90
69031;DHT22;56083;48.774;8.942;2023-05-10T00:42:24;11.90;99.90
69031;DHT22;56083;48.774;8.942;2023-05-10T00:44:49;11.80;99.90
69031;DHT22;56083;48.774;8.942;2023-05-10T00:47:16;11.80;99.90
69031;DHT22;56083;48.774;8.942;2023-05-10T00:49:45;11.80;99.90
69031;DHT22;56083;48.774;8.942;2023-05-10T00:52:11;11.70;99.90
69031;DHT22;56083;48.774;8.942;2023-05-10T00:54:37;11.70;99.90
69031;DHT22;56083;48.774;8.942;2023-05-10T00:57:02;11.80;99.90
69031;DHT22;56083;48.774;8.942;2023-05-10T00:59:28;11.80;99.90
69031;DHT22;56083;48.774;8.942;2023-05-10T01:01:54;11.80;99.90
69031;DHT22;56083;48.774;8.942;2023-05-10T01:04:20;11.80;99.90
69031;DHT22;56083;48.774;8.942;2023-05-10T01:06:51;11.80;99.90
69031;DHT22;56083;48.774;8.942;2023-05-10T01:09:17;11.90;99.90
69031;DHT22;56083;48.774;8.942;2023-05-10T01:11:43;11.80;99.90
69031;DHT22;56083;48.774;8.942;2023-05-10T01:14:10;11.80;99.90
69031;DHT22;56083;48.774;8.942;2023-05-10T01:16:40;11.80;99.90
69031;DHT22;56083;48.774;8.942;2023-05-10T01:19:26;11.80;99.90
69031;DHT22;56083;48.774;8.942;2023-05-10T01:33:23;11.70;99.90
69031;DHT22;56083;48.774;8.942;2023-05-10T01:38:29;11.60;99.90
69031;DHT22;56083;48.774;8.942;2023-05-10T01:44:16;11.60;99.90
69031;DHT22;56083;48.774;8.942;2023-05-10T01:46:43;11.60;99.90
69031;DHT22;56083;48.774;8.942;2023-05-10T01:49:28;11.60;99.90
69031;DHT22;56083;48.774;8.942;2023-05-10T01:52:00;11.60;99.90
69031;DHT22;56083;48.774;8.942;2023-05-10T01:54:28;11.60;99.90
69031;DHT22;56083;48.774;8.942;2023-05-10T01:57:01;11.60;99.90
69031;DHT22;56083;48.774;8.942;2023-05-10T01:59:35;11.60;99.90
69031;DHT22;56083;48.774;8.942;2023-05-10T02:02:02;11.60;99.90
69031;DHT22;56083;48.774;8.942;2023-05-10T02:04:30;11.60;99.90
69031;DHT22;56083;48.774;8.942;2023-05-10T02:06:56;11.60;99.90
69031;DHT22;56083;48.774;8.942;2023-05-10T02:09:24;11.50;99.90
69031;DHT22;56083;48.774;8.942;2023-05-10T02:11:50;11.50;99.90
69031;DHT22;56083;48.774;8.942;2023-05-10T02:14:18;11.40;99.90
69031;DHT22;56083;48.774;8.942;2023-05-10T02:16:44;11.40;99.90
69031;DHT22;56083;48.774;8.942;2023-05-10T02:19:12;11.30;99.90
69031;DHT22;56083;48.774;8.942;2023-05-10T02:21:39;11.30;99.90
69031;DHT22;56083;48.774;8.942;2023-05-10T02:24:06;11.30;99.90
69031;DHT22;56083;48.774;8.942;2023-05-10T02:26:34;11.20;99.90
69031;DHT22;56083;48.774;8.942;2023-05-10T02:29:02;11.20;99.90
69031;DHT22;56083;48.774;8.942;2023-05-10T02:31:30;11.20;99.90
69031;DHT22;56083;48.774;8.942;2023-05-10T02:33:57;11.10;99.90
69031;DHT22;56083;48.774;8.942;2023-05-10T02:36:24;11.10;99.90
69031;DHT22;56083;48.774;8.942;2023-05-10T02:38:51;11.10;99.90
69031;DHT22;56083;48.774;8.942;2023-05-10T02:41:20;11.20;99.90
69031;DHT22;56083;48.774;8.942;2023-05-10T02:43:50;11.20;99.90
69031;DHT22;56083;48.774;8.942;2023-05-10T02:46:19;11.30;99.90
69031;DHT22;56083;48.774;8.942;2023-05-10T02:48:44;11.30;99.90
69031;DHT22;56083;48.774;8.942;2023-05-10T02:51:12;11.30;99.90
69031;DHT22;56083;48.774;8.942;2023-05-10T02:53:41;11.30;99.90
69031;DHT22;56083;48.774;8.942;2023-05-10T02:56:15;11.40;99.90
69031;DHT22;56083;48.774;8.942;2023-05-10T02:58:45;11.40;99.90
69031;DHT22;56083;48.774;8.942;2023-05-10T03:01:11;11.40;99.90
69031;DHT22;56083;48.774;8.942;2023-05-10T03:03:37;11.40;99.90
69031;DHT22;56083;48.774;8.942;2023-05-10T03:06:03;11.40;99.90
69031;DHT22;56083;48.774;8.942;2023-05-10T03:08:29;11.40;99.90
69031;DHT22;56083;48.774;8.942;2023-05-10T03:11:10;11.40;99.90
69031;DHT22;56083;48.774;8.942;2023-05-10T03:16:54;11.40;99.90
69031;DHT22;56083;48.774;8.942;2023-05-10T03:19:48;11.40;99.90
69031;DHT22;56083;48.774;8.942;2023-05-10T03:22:29;11.40;99.90
69031;DHT22;56083;48.774;8.942;2023-05-10T03:24:56;11.40;99.90
69031;DHT22;56083;48.774;8.942;2023-05-10T03:27:25;11.40;99.90
69031;DHT22;56083;48.774;8.942;2023-05-10T03:29:53;11.40;99.90
69031;DHT22;56083;48.774;8.942;2023-05-10T03:32:19;11.40;99.90
69031;DHT22;56083;48.774;8.942;2023-05-10T03:34:45;11.40;99.90
69031;DHT22;56083;48.774;8.942;2023-05-10T03:37:10;11.50;99.90
69031;DHT22;56083;48.774;8.942;2023-05-10T03:39:36;11.50;99.90
69031;DHT22;56083;48.774;8.942;2023-05-10T03:42:02;11.50;99.90
69031;DHT22;56083;48.774;8.942;2023-05-10T03:44:27;11.40;99.90
69031;DHT22;56083;48.774;8.942;2023-05-10T03:46:53;11.40;99.90
69031;DHT22;56083;48.774;8.942;2023-05-10T03:49:19;11.40;99.90
69031;DHT22;56083;48.774;8.942;2023-05-10T03:51:44;11.40;99.90
69031;DHT22;56083;48.774;8.942;2023-05-10T03:54:10;11.40;99.90
69031;DHT22;56083;48.774;8.942;2023-05-10T03:56:35;11.40;99.90
69031;DHT22;56083;48.774;8.942;2023-05-10T03:59:01;11.40;99.90
69031;DHT22;56083;48.774;8.942;2023-05-10T04:01:27;11.40;99.90
69031;DHT22;56083;48.774;8.942;2023-05-10T04:03:52;11.40;99.90
69031;DHT22;56083;48.774;8.942;2023-05-10T04:06:18;11.40;99.90
69031;DHT22;56083;48.774;8.942;2023-05-10T04:08:44;11.40;99.90
69031;DHT22;56083;48.774;8.942;2023-05-10T04:11:11;11.50;99.90
69031;DHT22;56083;48.774;8.942;2023-05-10T04:13:37;11.50;99.90
69031;DHT22;56083;48.774;8.942;2023-05-10T04:16:03;11.50;99.90
69031;DHT22;56083;48.774;8.942;2023-05-10T04:18:29;11.50;99.90
69031;DHT22;56083;48.774;8.942;2023-05-10T04:20:55;11.50;99.90
69031;DHT22;56083;48.774;8.942;2023-05-10T04:23:21;11.40;99.90
69031;DHT22;56083;48.774;8.942;2023-05-10T04:25:46;11.40;99.90
69031;DHT22;56083;48.774;8.942;2023-05-10T04:28:12;11.40;99.90
69031;DHT22;56083;48.774;8.942;2023-05-10T04:30:38;11.50;99.90
69031;DHT22;56083;48.774;8.942;2023-05-10T04:33:04;11.50;99.90
69031;DHT22;56083;48.774;8.942;2023-05-10T04:35:29;11.50;99.90
69031;DHT22;56083;48.774;8.942;2023-05-10T04:37:55;11.50;99.90
69031;DHT22;56083;48.774;8.942;2023-05-10T04:40:21;11.50;99.90
69031;DHT22;56083;48.774;8.942;2023-05-10T04:42:46;11.50;99.90
69031;DHT22;56083;48.774;8.942;2023-05-10T04:45:12;11.50;99.90
69031;DHT22;56083;48.774;8.942;2023-05-10T04:47:40;11.60;99.90
69031;DHT22;56083;48.774;8.942;2023-05-10T04:50:06;11.60;99.90
69031;DHT22;56083;48.774;8.942;2023-05-10T04:52:32;11.60;99.90
69031;DHT22;56083;48.774;8.942;2023-05-10T04:54:58;11.60;99.90
69031;DHT22;56083;48.774;8.942;2023-05-10T04:57:23;11.60;99.90
69031;DHT22;56083;48.774;8.942;2023-05-10T04:59:49;11.60;99.90
69031;DHT22;56083;48.774;8.942;2023-05-10T05:02:14;11.60;99.90
69031;DHT22;56083;48.774;8.942;2023-05-10T05:04:40;11.70;99.90
69031;DHT22;56083;48.774;8.942;2023-05-10T05:07:06;11.70;99.90
69031;DHT22;56083;48.774;8.942;2023-05-10T05:09:32;11.70;99.90
69031;DHT22;56083;48.774;8.942;2023-05-10T05:11:57;11.80;99.90
69031;DHT22;56083;48.774;8.942;2023-05-10T05:14:23;11.80;99.90
69031;DHT22;56083;48.774;8.942;2023-05-10T05:16:51;11.80;99.90
69031;DHT22;56083;48.774;8.942;2023-05-10T05:19:16;11.80;99.90
69031;DHT22;56083;48.774;8.942;2023-05-10T05:21:42;11.80;99.90
69031;DHT22;56083;48.774;8.942;2023-05-10T05:24:08;11.90;99.90
69031;DHT22;56083;48.774;8.942;2023-05-10T05:26:35;11.90;99.90
69031;DHT22;56083;48.774;8.942;2023-05-10T05:29:01;11.90;99.90
69031;DHT22;56083;48.774;8.942;2023-05-10T05:31:26;12.00;99.90
69031;DHT22;56083;48.774;8.942;2023-05-10T05:33:52;12.00;99.90
69031;DHT22;56083;48.774;8.942;2023-05-10T05:36:17;12.10;99.90
69031;DHT22;56083;48.774;8.942;2023-05-10T05:38:43;12.10;99.90
69031;DHT22;56083;48.774;8.942;2023-05-10T05:41:09;12.20;99.90
69031;DHT22;56083;48.774;8.942;2023-05-10T05:43:34;12.30;99.90
69031;DHT22;56083;48.774;8.942;2023-05-10T05:46:00;12.30;99.90
69031;DHT22;56083;48.774;8.942;2023-05-10T05:48:25;12.40;99.90
69031;DHT22;56083;48.774;8.942;2023-05-10T05:50:54;12.40;99.90
69031;DHT22;56083;48.774;8.942;2023-05-10T05:53:21;12.50;99.90
69031;DHT22;56083;48.774;8.942;2023-05-10T05:55:57;12.50;99.90
69031;DHT22;56083;48.774;8.942;2023-05-10T05:58:24;12.50;99.90
69031;DHT22;56083;48.774;8.942;2023-05-10T06:00:50;12.50;99.90
69031;DHT22;56083;48.774;8.942;2023-05-10T06:03:16;12.50;99.90
69031;DHT22;56083;48.774;8.942;2023-05-10T06:05:42;12.50;99.90
69031;DHT22;56083;48.774;8.942;2023-05-10T06:08:07;12.50;99.90
69031;DHT22;56083;48.774;8.942;2023-05-10T06:10:33;12.40;99.90
69031;DHT22;56083;48.774;8.942;2023-05-10T06:12:59;12.30;99.90
69031;DHT22;56083;48.774;8.942;2023-05-10T06:15:25;12.30;99.90
69031;DHT22;56083;48.774;8.942;2023-05-10T06:17:51;12.20;99.90
69031;DHT22;56083;48.774;8.942;2023-05-10T06:20:17;12.20;99.90
69031;DHT22;56083;48.774;8.942;2023-05-10T06:22:42;12.10;99.90
69031;DHT22;56083;48.774;8.942;2023-05-10T06:25:08;12.00;99.90
69031;DHT22;56083;48.774;8.942;2023-05-10T06:27:35;12.00;99.90
69031;DHT22;56083;48.774;8.942;2023-05-10T06:30:00;12.00;99.90
69031;DHT22;56083;48.774;8.942;2023-05-10T06:32:28;12.00;99.90
69031;DHT22;56083;48.774;8.942;2023-05-10T06:34:53;12.00;99.90
69031;DHT22;56083;48.774;8.942;2023-05-10T06:37:19;12.20;99.90
69031;DHT22;56083;48.774;8.942;2023-05-10T06:39:45;12.20;99.90
69031;DHT22;56083;48.774;8.942;2023-05-10T06:42:11;12.30;99.90
69031;DHT22;56083;48.774;8.942;2023-05-10T06:44:36;12.50;99.90
69031;DHT22;56083;48.774;8.942;2023-05-10T06:47:02;12.50;99.90
69031;DHT22;56083;48.774;8.942;2023-05-10T06:49:28;12.70;99.90
69031;DHT22;56083;48.774;8.942;2023-05-10T06:51:57;12.70;99.90
69031;DHT22;56083;48.774;8.942;2023-05-10T06:54:23;12.80;99.90
69031;DHT22;56083;48.774;8.942;2023-05-10T06:56:48;12.90;99.90
69031;DHT22;56083;48.774;8.942;2023-05-10T06:59:14;13.00;99.90
69031;DHT22;56083;48.774;8.942;2023-05-10T07:01:42;13.00;99.90
69031;DHT22;56083;48.774;8.942;2023-05-10T07:04:07;13.20;99.90
69031;DHT22;56083;48.774;8.942;2023-05-10T07:06:33;13.30;99.90
69031;DHT22;56083;48.774;8.942;2023-05-10T07:08:59;13.40;99.90
69031;DHT22;56083;48.774;8.942;2023-05-10T07:11:26;13.50;99.90
69031;DHT22;56083;48.774;8.942;2023-05-10T07:13:52;13.60;99.90
69031;DHT22;56083;48.774;8.942;2023-05-10T07:16:17;13.60;99.90
69031;DHT22;56083;48.774;8.942;2023-05-10T07:18:43;13.70;99.90
69031;DHT22;56083;48.774;8.942;2023-05-10T07:21:09;13.80;99.90
69031;DHT22;56083;48.774;8.942;2023-05-10T07:23:36;13.90;99.90
69031;DHT22;56083;48.774;8.942;2023-05-10T07:26:01;14.10;99.90
69031;DHT22;56083;48.774;8.942;2023-05-10T07:28:27;14.30;99.90
69031;DHT22;56083;48.774;8.942;2023-05-10T07:30:53;14.40;99.90
69031;DHT22;56083;48.774;8.942;2023-05-10T07:33:18;14.40;99.90
69031;DHT22;56083;48.774;8.942;2023-05-10T07:35:44;14.40;99.90
69031;DHT22;56083;48.774;8.942;2023-05-10T07:38:10;14.40;99.90
69031;DHT22;56083;48.774;8.942;2023-05-10T07:40:39;14.40;99.90
69031;DHT22;56083;48.774;8.942;2023-05-10T07:43:05;14.30;99.90
69031;DHT22;56083;48.774;8.942;2023-05-10T07:45:30;14.40;99.90
69031;DHT22;56083;48.774;8.942;2023-05-10T07:47:56;14.40;99.90
69031;DHT22;56083;48.774;8.942;2023-05-10T07:50:21;14.50;99.90
69031;DHT22;56083;48.774;8.942;2023-05-10T07:52:47;14.60;99.90
69031;DHT22;56083;48.774;8.942;2023-05-10T07:55:13;14.60;99.90
69031;DHT22;56083;48.774;8.942;2023-05-10T07:57:39;14.70;99.90
69031;DHT22;56083;48.774;8.942;2023-05-10T08:00:06;14.60;99.90
69031;DHT22;56083;48.774;8.942;2023-05-10T08:02:33;14.70;99.90
69031;DHT22;56083;48.774;8.942;2023-05-10T08:04:59;14.80;99.90
69031;DHT22;56083;48.774;8.942;2023-05-10T08:07:24;14.80;99.90
69031;DHT22;56083;48.774;8.942;2023-05-10T08:09:50;15.10;99.90
69031;DHT22;56083;48.774;8.942;2023-05-10T08:12:16;15.30;99.90
69031;DHT22;56083;48.774;8.942;2023-05-10T08:14:41;15.40;99.90
69031;DHT22;56083;48.774;8.942;2023-05-10T08:17:07;15.40;99.90
69031;DHT22;56083;48.774;8.942;2023-05-10T08:19:32;15.40;99.90
69031;DHT22;56083;48.774;8.942;2023-05-10T08:21:58;15.50;99.90
69031;DHT22;56083;48.774;8.942;2023-05-10T08:24:24;15.70;99.90
69031;DHT22;56083;48.774;8.942;2023-05-10T08:26:49;15.70;99.90
69031;DHT22;56083;48.774;8.942;2023-05-10T08:29:15;15.80;99.90
69031;DHT22;56083;48.774;8.942;2023-05-10T08:31:41;15.70;99.90
69031;DHT22;56083;48.774;8.942;2023-05-10T08:34:07;15.80;99.90
69031;DHT22;56083;48.774;8.942;2023-05-10T08:36:32;15.90;99.90
69031;DHT22;56083;48.774;8.942;2023-05-10T08:38:58;16.00;99.90
69031;DHT22;56083;48.774;8.942;2023-05-10T08:41:24;15.90;99.90
69031;DHT22;56083;48.774;8.942;2023-05-10T08:43:52;15.80;99.90
69031;DHT22;56083;48.774;8.942;2023-05-10T08:46:19;15.60;99.90
69031;DHT22;56083;48.774;8.942;2023-05-10T08:48:46;15.70;99.90
69031;DHT22;56083;48.774;8.942;2023-05-10T08:51:18;15.80;99.90
69031;DHT22;56083;48.774;8.942;2023-05-10T08:53:44;15.70;99.90
69031;DHT22;56083;48.774;8.942;2023-05-10T08:56:11;15.60;99.90
69031;DHT22;56083;48.774;8.942;2023-05-10T08:58:38;15.70;99.90
69031;DHT22;56083;48.774;8.942;2023-05-10T09:01:04;15.50;99.90
69031;DHT22;56083;48.774;8.942;2023-05-10T09:03:30;15.40;99.90
69031;DHT22;56083;48.774;8.942;2023-05-10T09:05:56;15.40;99.90
69031;DHT22;56083;48.774;8.942;2023-05-10T09:08:26;15.60;99.90
69031;DHT22;56083;48.774;8.942;2023-05-10T09:10:53;15.90;99.90
69031;DHT22;56083;48.774;8.942;2023-05-10T09:13:19;16.20;99.90
69031;DHT22;56083;48.774;8.942;2023-05-10T09:15:47;16.80;99.90
69031;DHT22;56083;48.774;8.942;2023-05-10T09:18:13;17.30;99.90
69031;DHT22;56083;48.774;8.942;2023-05-10T09:20:39;17.80;99.90
69031;DHT22;56083;48.774;8.942;2023-05-10T09:23:04;18.50;99.90
69031;DHT22;56083;48.774;8.942;2023-05-10T09:25:31;19.30;99.90
69031;DHT22;56083;48.774;8.942;2023-05-10T09:27:59;20.10;99.90
69031;DHT22;56083;48.774;8.942;2023-05-10T09:30:30;20.60;99.90
69031;DHT22;56083;48.774;8.942;2023-05-10T09:32:57;20.30;99.90
69031;DHT22;56083;48.774;8.942;2023-05-10T09:35:27;19.70;99.90
69031;DHT22;56083;48.774;8.942;2023-05-10T09:37:55;18.90;99.90
69031;DHT22;56083;48.774;8.942;2023-05-10T09:40:22;18.50;99.90
69031;DHT22;56083;48.774;8.942;2023-05-10T09:45:20;18.10;99.90
69031;DHT22;56083;48.774;8.942;2023-05-10T09:47:46;18.10;99.90
69031;DHT22;56083;48.774;8.942;2023-05-10T09:50:12;17.90;99.90
69031;DHT22;56083;48.774;8.942;2023-05-10T09:52:56;17.90;99.90
69031;DHT22;56083;48.774;8.942;2023-05-10T09:55:42;17.90;99.90
69031;DHT22;56083;48.774;8.942;2023-05-10T09:58:12;18.00;99.90
69031;DHT22;56083;48.774;8.942;2023-05-10T10:00:43;17.40;99.90
69031;DHT22;56083;48.774;8.942;2023-05-10T10:03:14;17.70;99.90
69031;DHT22;56083;48.774;8.942;2023-05-10T10:05:41;18.40;99.90
69031;DHT22;56083;48.774;8.942;2023-05-10T10:08:10;19.10;99.90
69031;DHT22;56083;48.774;8.942;2023-05-10T10:10:40;19.30;99.90
69031;DHT22;56083;48.774;8.942;2023-05-10T10:13:07;19.10;99.90
69031;DHT22;56083;48.774;8.942;2023-05-10T10:15:33;19.10;99.90
69031;DHT22;56083;48.774;8.942;2023-05-10T10:18:00;19.50;99.90
69031;DHT22;56083;48.774;8.942;2023-05-10T10:20:26;19.60;99.90
69031;DHT22;56083;48.774;8.942;2023-05-10T10:22:52;19.50;99.90
69031;DHT22;56083;48.774;8.942;2023-05-10T10:25:19;19.10;99.90
69031;DHT22;56083;48.774;8.942;2023-05-10T10:33:06;16.50;99.90
69031;DHT22;56083;48.774;8.942;2023-05-10T10:35:36;16.00;99.90
69031;DHT22;56083;48.774;8.942;2023-05-10T10:38:02;15.70;99.90
69031;DHT22;56083;48.774;8.942;2023-05-10T10:40:37;15.50;99.90
69031;DHT22;56083;48.774;8.942;2023-05-10T10:43:26;15.20;99.90
69031;DHT22;56083;48.774;8.942;2023-05-10T10:46:13;14.90;99.90
69031;DHT22;56083;48.774;8.942;2023-05-10T10:48:41;15.10;99.90
69031;DHT22;56083;48.774;8.942;2023-05-10T10:51:07;15.50;99.90
69031;DHT22;56083;48.774;8.942;2023-05-10T10:53:33;15.70;99.90
69031;DHT22;56083;48.774;8.942;2023-05-10T10:56:10;15.80;99.90
69031;DHT22;56083;48.774;8.942;2023-05-10T10:58:38;15.70;99.90
69031;DHT22;56083;48.774;8.942;2023-05-10T11:03:38;15.00;99.90
69031;DHT22;56083;48.774;8.942;2023-05-10T11:06:04;15.00;99.90
69031;DHT22;56083;48.774;8.942;2023-05-10T11:08:35;14.90;99.90
69031;DHT22;56083;48.774;8.942;2023-05-10T11:11:07;14.90;99.90
69031;DHT22;56083;48.774;8.942;2023-05-10T11:16:16;15.00;99.90
69031;DHT22;56083;48.774;8.942;2023-05-10T11:19:04;15.10;99.90
69031;DHT22;56083;48.774;8.942;2023-05-10T11:21:31;15.20;99.90
69031;DHT22;56083;48.774;8.942;2023-05-10T11:23:59;15.20;99.90
69031;DHT22;56083;48.774;8.942;2023-05-10T11:26:30;15.30;99.90
69031;DHT22;56083;48.774;8.942;2023-05-10T11:28:56;15.40;99.90
69031;DHT22;56083;48.774;8.942;2023-05-10T11:31:23;15.50;99.90
69031;DHT22;56083;48.774;8.942;2023-05-10T11:33:51;15.70;99.90
69031;DHT22;56083;48.774;8.942;2023-05-10T11:36:18;16.10;99.90
69031;DHT22;56083;48.774;8.942;2023-05-10T11:38:45;16.30;99.90
69031;DHT22;56083;48.774;8.942;2023-05-10T11:41:12;16.40;99.90
69031;DHT22;56083;48.774;8.942;2023-05-10T11:43:41;16.70;99.90
69031;DHT22;56083;48.774;8.942;2023-05-10T11:46:09;17.20;99.90
69031;DHT22;56083;48.774;8.942;2023-05-10T11:48:36;17.20;99.90
69031;DHT22;56083;48.774;8.942;2023-05-10T11:51:02;17.00;99.90
69031;DHT22;56083;48.774;8.942;2023-05-10T11:53:30;17.10;99.90
69031;DHT22;56083;48.774;8.942;2023-05-10T11:56:03;17.40;99.90
69031;DHT22;56083;48.774;8.942;2023-05-10T11:58:30;17.50;99.90
69031;DHT22;56083;48.774;8.942;2023-05-10T12:00:57;17.80;99.90
69031;DHT22;56083;48.774;8.942;2023-05-10T12:03:23;17.60;99.90
69031;DHT22;56083;48.774;8.942;2023-05-10T12:05:49;17.30;99.90
69031;DHT22;56083;48.774;8.942;2023-05-10T12:08:15;16.80;99.90
69031;DHT22;56083;48.774;8.942;2023-05-10T12:10:47;16.90;99.90
69031;DHT22;56083;48.774;8.942;2023-05-10T12:13:13;17.30;99.90
69031;DHT22;56083;48.774;8.942;2023-05-10T12:15:39;17.60;99.90
69031;DHT22;56083;48.774;8.942;2023-05-10T12:18:11;18.10;99.90
69031;DHT22;56083;48.774;8.942;2023-05-10T12:20:37;18.50;99.90
69031;DHT22;56083;48.774;8.942;2023-05-10T12:23:04;19.10;99.90
69031;DHT22;56083;48.774;8.942;2023-05-10T12:25:34;19.10;99.90
69031;DHT22;56083;48.774;8.942;2023-05-10T12:28:04;18.60;99.90
69031;DHT22;56083;48.774;8.942;2023-05-10T12:30:32;18.10;99.90
69031;DHT22;56083;48.774;8.942;2023-05-10T12:35:33;17.10;99.90
69031;DHT22;56083;48.774;8.942;2023-05-10T12:38:38;16.70;99.90
69031;DHT22;56083;48.774;8.942;2023-05-10T12:41:06;16.80;99.90
69031;DHT22;56083;48.774;8.942;2023-05-10T12:43:32;16.90;99.90
69031;DHT22;56083;48.774;8.942;2023-05-10T12:46:09;17.30;99.90
69031;DHT22;56083;48.774;8.942;2023-05-10T12:48:36;17.70;99.90
69031;DHT22;56083;48.774;8.942;2023-05-10T12:51:03;18.10;99.90
69031;DHT22;56083;48.774;8.942;2023-05-10T12:53:29;18.30;99.90
69031;DHT22;56083;48.774;8.942;2023-05-10T12:55:55;18.40;99.90
69031;DHT22;56083;48.774;8.942;2023-05-10T12:58:20;18.70;99.90
69031;DHT22;56083;48.774;8.942;2023-05-10T13:00:46;19.00;99.90
69031;DHT22;56083;48.774;8.942;2023-05-10T13:03:12;19.00;99.90
69031;DHT22;56083;48.774;8.942;2023-05-10T13:05:38;18.80;99.90
69031;DHT22;56083;48.774;8.942;2023-05-10T13:08:04;18.70;99.90
69031;DHT22;56083;48.774;8.942;2023-05-10T13:10:30;18.30;99.90
69031;DHT22;56083;48.774;8.942;2023-05-10T13:12:57;18.10;99.90
69031;DHT22;56083;48.774;8.942;2023-05-10T13:15:23;18.20;99.90
69031;DHT22;56083;48.774;8.942;2023-05-10T13:17:49;18.10;99.90
69031;DHT22;56083;48.774;8.942;2023-05-10T13:20:14;18.20;99.90
69031;DHT22;56083;48.774;8.942;2023-05-10T13:22:41;18.10;99.90
69031;DHT22;56083;48.774;8.942;2023-05-10T13:25:07;18.00;99.90
69031;DHT22;56083;48.774;8.942;2023-05-10T13:27:33;18.10;99.90
69031;DHT22;56083;48.774;8.942;2023-05-10T13:29:59;18.00;99.90
69031;DHT22;56083;48.774;8.942;2023-05-10T13:32:25;17.90;99.90
69031;DHT22;56083;48.774;8.942;2023-05-10T13:34:51;17.80;99.90
69031;DHT22;56083;48.774;8.942;2023-05-10T13:37:17;17.80;99.90
69031;DHT22;56083;48.774;8.942;2023-05-10T13:39:42;18.10;99.90
69031;DHT22;56083;48.774;8.942;2023-05-10T13:42:08;18.50;99.90
69031;DHT22;56083;48.774;8.942;2023-05-10T13:44:34;18.80;99.90
69031;DHT22;56083;48.774;8.942;2023-05-10T13:46:59;18.90;99.90
69031;DHT22;56083;48.774;8.942;2023-05-10T13:49:25;18.80;99.90
69031;DHT22;56083;48.774;8.942;2023-05-10T13:51:51;18.50;99.90
69031;DHT22;56083;48.774;8.942;2023-05-10T13:54:17;18.60;99.90
69031;DHT22;56083;48.774;8.942;2023-05-10T13:56:45;18.40;99.90
69031;DHT22;56083;48.774;8.942;2023-05-10T13:59:12;17.90;99.90
69031;DHT22;56083;48.774;8.942;2023-05-10T14:01:39;17.70;99.90
69031;DHT22;56083;48.774;8.942;2023-05-10T14:04:05;17.80;99.90
69031;DHT22;56083;48.774;8.942;2023-05-10T14:06:31;18.10;99.90
69031;DHT22;56083;48.774;8.942;2023-05-10T14:08:57;17.90;99.90
69031;DHT22;56083;48.774;8.942;2023-05-10T14:11:22;17.80;99.90
69031;DHT22;56083;48.774;8.942;2023-05-10T14:13:48;17.90;99.90
69031;DHT22;56083;48.774;8.942;2023-05-10T14:16:14;18.10;99.90
69031;DHT22;56083;48.774;8.942;2023-05-10T14:18:40;18.10;99.90
69031;DHT22;56083;48.774;8.942;2023-05-10T14:21:05;17.90;99.90
69031;DHT22;56083;48.774;8.942;2023-05-10T14:23:31;17.80;99.90
69031;DHT22;56083;48.774;8.942;2023-05-10T14:25:57;17.80;99.90
69031;DHT22;56083;48.774;8.942;2023-05-10T14:28:22;17.80;99.90
69031;DHT22;56083;48.774;8.942;2023-05-10T14:30:51;17.50;99.90
69031;DHT22;56083;48.774;8.942;2023-05-10T14:33:17;17.10;99.90
69031;DHT22;56083;48.774;8.942;2023-05-10T14:35:44;16.90;99.90
69031;DHT22;56083;48.774;8.942;2023-05-10T14:38:10;16.80;99.90
69031;DHT22;56083;48.774;8.942;2023-05-10T14:40:36;16.70;99.90
69031;DHT22;56083;48.774;8.942;2023-05-10T14:43:01;16.90;99.90
69031;DHT22;56083;48.774;8.942;2023-05-10T14:45:27;17.10;99.90
69031;DHT22;56083;48.774;8.942;2023-05-10T14:47:53;17.30;99.90
69031;DHT22;56083;48.774;8.942;2023-05-10T14:50:18;17.40;99.90
69031;DHT22;56083;48.774;8.942;2023-05-10T14:52:44;17.40;99.90
69031;DHT22;56083;48.774;8.942;2023-05-10T14:55:10;17.60;99.90
69031;DHT22;56083;48.774;8.942;2023-05-10T14:57:37;17.90;99.90
69031;DHT22;56083;48.774;8.942;2023-05-10T15:00:04;18.00;99.90
69031;DHT22;56083;48.774;8.942;2023-05-10T15:02:30;17.80;99.90
69031;DHT22;56083;48.774;8.942;2023-05-10T15:04:56;18.00;99.90
69031;DHT22;56083;48.774;8.942;2023-05-10T15:07:23;18.10;99.90
69031;DHT22;56083;48.774;8.942;2023-05-10T15:09:49;18.00;99.90
69031;DHT22;56083;48.774;8.942;2023-05-10T15:12:15;18.10;99.90
69031;DHT22;56083;48.774;8.942;2023-05-10T15:14:41;18.10;99.90
69031;DHT22;56083;48.774;8.942;2023-05-10T15:17:07;18.10;99.90
69031;DHT22;56083;48.774;8.942;2023-05-10T15:19:33;18.40;99.90
69031;DHT22;56083;48.774;8.942;2023-05-10T15:21:58;18.50;99.90
69031;DHT22;56083;48.774;8.942;2023-05-10T15:24:25;18.50;99.90
69031;DHT22;56083;48.774;8.942;2023-05-10T15:26:50;18.30;99.90
69031;DHT22;56083;48.774;8.942;2023-05-10T15:29:16;18.10;99.90
69031;DHT22;56083;48.774;8.942;2023-05-10T15:31:49;17.60;99.90
69031;DHT22;56083;48.774;8.942;2023-05-10T15:34:15;17.20;99.90
69031;DHT22;56083;48.774;8.942;2023-05-10T15:36:41;17.20;99.90
69031;DHT22;56083;48.774;8.942;2023-05-10T15:39:07;17.20;99.90
69031;DHT22;56083;48.774;8.942;2023-05-10T15:41:34;17.30;99.90
69031;DHT22;56083;48.774;8.942;2023-05-10T15:44:00;17.40;99.90
69031;DHT22;56083;48.774;8.942;2023-05-10T15:46:30;17.70;99.90
69031;DHT22;56083;48.774;8.942;2023-05-10T15:48:57;17.90;99.90
69031;DHT22;56083;48.774;8.942;2023-05-10T15:51:22;17.90;99.90
69031;DHT22;56083;48.774;8.942;2023-05-10T15:53:48;18.00;99.90
69031;DHT22;56083;48.774;8.942;2023-05-10T15:56:14;18.10;99.90
69031;DHT22;56083;48.774;8.942;2023-05-10T15:58:40;17.90;99.90
69031;DHT22;56083;48.774;8.942;2023-05-10T16:01:06;17.90;99.90
69031;DHT22;56083;48.774;8.942;2023-05-10T16:03:32;18.00;99.90
69031;DHT22;56083;48.774;8.942;2023-05-10T16:05:59;17.90;99.90